French Lick, IN (47432)

5:07 PM EDT on March 30, 2017 (GMT -0400)
fL | | Change Station

Elev 758 ft 38.53 °N, 86.65 °W | Updated 0 second ago

Mostly Cloudy
Mostly Cloudy
74.0 °F
Feels Like 77 °F
N
18.0
Wind Variable Wind from West
Gusts 32.0 mph

Today
High -- | Low -- °F
--% Chance of Precip.
Yesterday
High -- | Low -- °F
Precip. -- in
Pressure 29.55 in
Visibility 10.0 miles
Clouds Few 5500 ft
Heat Index 77 °F
Dew Point 54 °F
Humidity 50%
Rainfall 0.00 in
Snow Depth Not available.
7:33 AM 8:08 PM
Waxing Crescent, 10% visible
METAR KHNB 302056Z AUTO 18019G29KT 10SM FEW055 24/12 A2956 RMK AO2 PK WND 18029/2050 SLP005 T02390122 56020
Pressure 29.55 in
Visibility 10.0 miles
Clouds Few 5500 ft
Heat Index 77 °F
Dew Point 54 °F
Humidity 50%
Rainfall 0.00 in
Snow Depth Not available.
7:33 AM 8:08 PM
Waxing Crescent, 10% visible
METAR KHNB 302056Z AUTO 18019G29KT 10SM FEW055 24/12 A2956 RMK AO2 PK WND 18029/2050 SLP005 T02390122 56020

Get Severe Weather Alerts

Thanks for signing up!

Be on the lookout for a verification email in your inbox.

You'll start receiving the daily forecast at 8 AM.

×

10-Day Weather Forecast

Almanac

Astronomy

Mar. 30, 2017 Rise Set
Actual Time
Civil Twilight
Nautical Twilight
Astronomical Twilight
Moon
Length of Visible Light
Length of Day
Tomorrow will be .
, % of the Moon is Illuminated

Today's Extremes

State Highs State Lows

Community

WunderPhotos

Upload Photos

1,962,540 photos uploaded!

WunderBlog® & News

Nearby

Air Quality

  Air Quality AQ Index Pollutant
Not available.

Snow Depth

Station Depth Elevation

Earthquake Activity

City Distance Mag. Time & Date
Minimum magnitude displayed is 2.5.

Earthquake Activity

City Distance Mag. Time & Date
Minimum magnitude displayed is 2.5.

Coastal Water Temperatures

Place Temperature

Stations

Nearby Weather Stations

Station Location Temp. Windchill Dew Point Humidity Wind Precip. Elev Updated Type
                   

Watches & Warnings

There are currently no watches in effect.